Time;durP1;ratioP1;P1;durP2;ratioP2;P2;SDS_P1;SDS_P2;PMS_P1;PMS_P2;Temp;Humidity;BMP_temperature;BMP_pressure;BME280_temperature;BME280_humidity;BME280_pressure;Samples;Min_cycle;Max_cycle;Signal;HPM_P1;HPM_P2
2022/04/08 00:01:36;;;;;;;1.35;0.50;;;12.50;94.90;;;;;;5018267;28;20056;-77
2022/04/08 00:04:05;;;;;;;1.35;0.50;;;12.60;94.90;;;;;;5021539;28;20037;-74
2022/04/08 00:06:32;;;;;;;1.50;0.45;;;12.60;94.80;;;;;;5005030;28;20508;-73
2022/04/08 00:08:59;;;;;;;1.90;0.50;;;12.60;94.90;;;;;;5017749;28;20042;-74
2022/04/08 00:11:26;;;;;;;2.13;0.57;;;12.50;94.70;;;;;;5008877;28;20117;-74
2022/04/08 00:13:53;;;;;;;1.70;0.52;;;12.50;94.60;;;;;;4998880;28;20045;-74
2022/04/08 00:16:21;;;;;;;1.92;0.40;;;12.60;94.80;;;;;;5020830;28;20307;-74
2022/04/08 00:18:48;;;;;;;2.40;0.60;;;12.50;94.60;;;;;;5000170;28;20901;-75
2022/04/08 00:21:17;;;;;;;3.03;0.60;;;12.60;94.60;;;;;;5004965;28;20052;-78
2022/04/08 00:23:45;;;;;;;2.17;0.68;;;12.50;94.50;;;;;;5006601;28;20052;-73
2022/04/08 00:26:12;;;;;;;1.58;0.40;;;12.50;94.50;;;;;;5008513;28;20049;-74
2022/04/08 00:28:39;;;;;;;2.05;0.50;;;12.60;94.60;;;;;;5007054;28;20050;-73
2022/04/08 00:31:08;;;;;;;2.00;0.50;;;12.50;94.40;;;;;;5013976;28;20124;-75
2022/04/08 00:33:36;;;;;;;1.95;0.50;;;12.50;94.40;;;;;;5002007;28;20116;-75
2022/04/08 00:36:03;;;;;;;1.60;0.50;;;12.50;94.40;;;;;;5012755;28;20121;-73
2022/04/08 00:38:32;;;;;;;3.97;0.60;;;12.60;94.40;;;;;;5008494;28;20077;-78
2022/04/08 00:40:59;;;;;;;2.22;0.50;;;12.50;94.20;;;;;;5005233;28;20052;-74
2022/04/08 00:43:34;;;;;;;1.92;0.50;;;12.50;94.10;;;;;;5012012;28;20335;-75
2022/04/08 00:46:02;;;;;;;2.35;0.52;;;12.50;94.10;;;;;;5008945;28;20676;-74
2022/04/08 00:48:29;;;;;;;2.05;0.57;;;12.50;94.20;;;;;;5011447;28;20029;-73
2022/04/08 00:50:56;;;;;;;1.83;0.60;;;12.50;94.10;;;;;;4993132;28;20056;-74
2022/04/08 00:53:24;;;;;;;1.58;0.40;;;12.50;93.90;;;;;;5008761;28;20045;-73
2022/04/08 00:56:03;;;;;;;1.27;0.43;;;12.50;94.10;;;;;;5006765;28;20131;-75
2022/04/08 00:58:31;;;;;;;2.50;0.50;;;12.50;93.80;;;;;;5008736;28;20041;-77
2022/04/08 01:00:58;;;;;;;1.45;0.60;;;12.50;94.00;;;;;;5010997;28;20287;-73
2022/04/08 01:03:25;;;;;;;1.70;0.50;;;12.50;93.90;;;;;;5022126;28;20045;-75
2022/04/08 01:05:52;;;;;;;1.70;0.50;;;12.50;93.90;;;;;;4998762;28;20191;-75
2022/04/08 01:08:19;;;;;;;1.77;0.50;;;12.50;93.80;;;;;;5011633;28;20037;-74
2022/04/08 01:10:45;;;;;;;2.08;0.60;;;12.50;94.00;;;;;;5019149;28;20041;-75
2022/04/08 01:13:14;;;;;;;1.65;0.60;;;12.50;93.70;;;;;;5017046;28;20052;-74
2022/04/08 01:15:42;;;;;;;2.92;0.70;;;12.50;93.60;;;;;;5023886;28;20476;-75
2022/04/08 01:18:10;;;;;;;1.33;0.57;;;12.50;93.80;;;;;;5029557;28;20033;-75
2022/04/08 01:20:37;;;;;;;1.48;0.30;;;12.50;93.90;;;;;;5011175;28;20054;-75
2022/04/08 01:23:05;;;;;;;1.42;0.40;;;12.50;93.70;;;;;;5003393;28;20137;-74
2022/04/08 01:25:33;;;;;;;2.38;0.60;;;12.50;93.70;;;;;;5010168;28;20037;-74
2022/04/08 01:28:00;;;;;;;2.22;0.70;;;12.50;93.70;;;;;;5009692;28;20061;-74
2022/04/08 01:30:27;;;;;;;2.80;0.68;;;12.50;93.40;;;;;;5008443;28;20400;-73
2022/04/08 01:32:53;;;;;;;1.83;0.60;;;12.50;93.50;;;;;;5013630;28;20045;-75
2022/04/08 01:35:20;;;;;;;1.83;0.60;;;12.50;93.70;;;;;;5008288;28;20135;-73
2022/04/08 01:37:47;;;;;;;2.60;0.63;;;12.50;93.60;;;;;;5013867;28;20131;-73
2022/04/08 01:40:14;;;;;;;2.20;0.55;;;12.50;93.30;;;;;;4998518;28;20432;-74
2022/04/08 01:42:43;;;;;;;1.75;0.50;;;12.50;93.60;;;;;;5009614;28;20496;-74
2022/04/08 01:45:10;;;;;;;2.15;0.47;;;12.50;93.10;;;;;;5013024;28;20133;-74
2022/04/08 01:47:37;;;;;;;1.25;0.50;;;12.50;93.00;;;;;;5013807;28;20068;-77
2022/04/08 01:50:05;;;;;;;2.25;0.70;;;12.40;92.90;;;;;;5015832;28;20041;-75
2022/04/08 01:52:31;;;;;;;1.40;0.50;;;12.40;93.20;;;;;;5017414;28;20053;-73
2022/04/08 01:54:58;;;;;;;3.05;0.65;;;12.50;93.20;;;;;;5003194;28;20448;-76
2022/04/08 01:57:29;;;;;;;3.28;1.00;;;12.50;93.10;;;;;;5021417;28;20038;-74
2022/04/08 01:59:57;;;;;;;2.58;0.65;;;12.50;93.20;;;;;;5014294;28;20052;-75
2022/04/08 02:02:24;;;;;;;1.85;0.50;;;12.40;92.60;;;;;;5016253;28;20049;-74
2022/04/08 02:04:51;;;;;;;2.78;0.50;;;12.40;92.80;;;;;;5019037;28;20059;-75
2022/04/08 02:07:18;;;;;;;1.33;0.40;;;12.40;92.70;;;;;;5016312;28;20136;-72
2022/04/08 02:09:44;;;;;;;3.03;0.63;;;12.40;92.90;;;;;;5020889;28;20046;-73
2022/04/08 02:12:11;;;;;;;2.75;0.50;;;12.40;92.50;;;;;;5015897;28;20053;-73
2022/04/08 02:14:38;;;;;;;1.92;0.60;;;12.40;92.70;;;;;;5017555;28;20133;-75
2022/04/08 02:17:07;;;;;;;2.17;0.60;;;12.40;92.40;;;;;;5020338;28;20099;-75
2022/04/08 02:19:34;;;;;;;1.90;0.55;;;12.40;92.30;;;;;;5017218;28;20057;-74
2022/04/08 02:22:01;;;;;;;2.13;0.52;;;12.40;92.40;;;;;;5019308;28;20064;-73
2022/04/08 02:24:28;;;;;;;1.77;0.60;;;12.40;92.40;;;;;;5021669;28;20481;-74
2022/04/08 02:26:55;;;;;;;2.38;0.60;;;12.40;92.50;;;;;;5015174;28;20054;-74
2022/04/08 02:29:22;;;;;;;2.20;0.70;;;12.40;92.40;;;;;;5014159;28;20048;-75
2022/04/08 02:31:49;;;;;;;2.17;0.65;;;12.40;92.40;;;;;;5019285;28;20047;-74
2022/04/08 02:34:17;;;;;;;1.83;0.55;;;12.40;92.50;;;;;;5004128;28;20140;-72
2022/04/08 02:36:46;;;;;;;1.75;0.50;;;12.40;92.10;;;;;;5027682;28;20046;-75
2022/04/08 02:39:14;;;;;;;1.17;0.40;;;12.40;92.30;;;;;;5023066;28;20049;-75
2022/04/08 02:41:42;;;;;;;3.30;0.50;;;12.40;92.50;;;;;;5015495;28;20050;-72
2022/04/08 02:44:09;;;;;;;2.13;0.50;;;12.40;92.50;;;;;;5017064;28;20034;-74
2022/04/08 02:46:36;;;;;;;1.98;0.50;;;12.40;92.30;;;;;;5013241;28;20054;-73
2022/04/08 02:49:03;;;;;;;1.98;0.47;;;12.40;92.40;;;;;;5002044;28;20053;-74
2022/04/08 02:51:31;;;;;;;1.95;0.50;;;12.40;92.20;;;;;;5008737;28;20111;-73
2022/04/08 02:53:58;;;;;;;2.22;0.60;;;12.40;92.40;;;;;;5015746;28;20115;-74
2022/04/08 02:56:25;;;;;;;1.65;0.57;;;12.40;92.40;;;;;;5014023;28;20176;-75
2022/04/08 02:58:52;;;;;;;2.88;0.73;;;12.40;92.30;;;;;;5022341;28;20060;-72
2022/04/08 03:01:19;;;;;;;1.77;0.60;;;12.40;92.10;;;;;;5016031;28;20041;-73
2022/04/08 03:03:46;;;;;;;2.20;0.68;;;12.40;92.20;;;;;;5013524;28;20065;-73
2022/04/08 03:06:13;;;;;;;2.33;0.50;;;12.40;92.00;;;;;;5012474;28;20049;-76
2022/04/08 03:08:41;;;;;;;3.63;0.68;;;12.40;91.80;;;;;;5011917;28;20041;-73
2022/04/08 03:11:08;;;;;;;2.83;0.73;;;12.40;91.80;;;;;;5013211;28;20107;-74
2022/04/08 03:13:35;;;;;;;1.85;0.68;;;12.40;91.70;;;;;;5008971;28;20052;-74
2022/04/08 03:16:02;;;;;;;1.73;0.43;;;12.40;91.60;;;;;;5011915;28;20994;-72
2022/04/08 03:18:29;;;;;;;2.63;0.63;;;12.30;91.70;;;;;;5008155;28;20052;-76
2022/04/08 03:20:56;;;;;;;2.25;0.60;;;12.30;91.60;;;;;;5013791;28;20033;-74
2022/04/08 03:23:23;;;;;;;1.55;0.45;;;12.40;91.60;;;;;;5012331;28;20061;-74
2022/04/08 03:25:51;;;;;;;3.25;0.80;;;12.40;91.70;;;;;;4990596;28;20077;-73
2022/04/08 03:28:18;;;;;;;1.95;0.60;;;12.40;91.50;;;;;;5012254;28;20270;-76
2022/04/08 03:30:46;;;;;;;2.33;0.55;;;12.30;91.60;;;;;;5026586;28;20056;-73
2022/04/08 03:33:13;;;;;;;1.95;0.70;;;12.30;91.80;;;;;;5018623;28;20504;-76
2022/04/08 03:35:40;;;;;;;2.45;0.68;;;12.30;91.60;;;;;;5014115;28;20041;-73
2022/04/08 03:38:06;;;;;;;1.75;0.60;;;12.40;91.50;;;;;;5015993;28;20042;-77
2022/04/08 03:40:35;;;;;;;2.03;0.70;;;12.30;91.40;;;;;;5020251;28;20075;-75
2022/04/08 03:43:03;;;;;;;1.80;0.70;;;12.40;91.50;;;;;;4993457;28;20045;-74
2022/04/08 03:45:30;;;;;;;2.08;0.50;;;12.30;91.40;;;;;;5011881;28;20037;-74
2022/04/08 03:47:57;;;;;;;2.20;0.52;;;12.30;91.50;;;;;;4997957;28;20173;-73
2022/04/08 03:50:24;;;;;;;1.73;0.50;;;12.30;91.40;;;;;;5020239;28;20044;-74
2022/04/08 03:52:51;;;;;;;1.60;0.68;;;12.40;91.40;;;;;;5016946;28;20051;-74
2022/04/08 03:55:18;;;;;;;4.00;0.80;;;12.30;91.40;;;;;;5034246;28;20076;-75
2022/04/08 03:57:45;;;;;;;1.85;0.60;;;12.40;91.40;;;;;;5026531;28;20049;-74
2022/04/08 04:00:14;;;;;;;2.17;0.57;;;12.30;91.60;;;;;;5019813;28;20025;-74
2022/04/08 04:02:42;;;;;;;2.58;0.60;;;12.30;91.50;;;;;;5010317;28;20041;-72
2022/04/08 04:05:10;;;;;;;2.25;0.60;;;12.30;91.60;;;;;;5016364;28;20141;-74
2022/04/08 04:07:38;;;;;;;1.67;0.50;;;12.30;91.40;;;;;;5017807;28;20136;-74
2022/04/08 04:10:06;;;;;;;2.35;0.60;;;12.30;91.20;;;;;;5013977;28;20084;-74
2022/04/08 04:12:33;;;;;;;2.55;0.57;;;12.30;91.20;;;;;;5013646;28;20400;-76
2022/04/08 04:14:59;;;;;;;2.30;0.70;;;12.30;91.10;;;;;;5009930;28;20037;-76
2022/04/08 04:17:28;;;;;;;2.50;0.75;;;12.30;91.30;;;;;;5016399;28;20120;-74
2022/04/08 04:19:55;;;;;;;2.15;0.63;;;12.30;91.10;;;;;;5021437;28;20064;-73
2022/04/08 04:22:22;;;;;;;1.90;0.65;;;12.30;91.20;;;;;;5015149;28;20455;-75
2022/04/08 04:24:49;;;;;;;2.55;0.70;;;12.30;91.10;;;;;;5020402;28;20049;-75
2022/04/08 04:27:16;;;;;;;2.40;0.70;;;12.30;91.10;;;;;;5013820;28;20061;-75
2022/04/08 04:29:43;;;;;;;2.45;0.90;;;12.30;91.00;;;;;;5012504;28;20151;-74
2022/04/08 04:32:10;;;;;;;1.73;0.63;;;12.30;91.00;;;;;;5023521;28;20050;-74
2022/04/08 04:34:38;;;;;;;2.05;0.70;;;12.30;91.00;;;;;;5006587;28;20055;-74
2022/04/08 04:37:05;;;;;;;1.35;0.57;;;12.30;90.90;;;;;;5027540;28;20072;-74
2022/04/08 04:39:32;;;;;;;1.60;0.60;;;12.30;91.00;;;;;;5019128;28;20077;-73
2022/04/08 04:41:59;;;;;;;2.08;0.63;;;12.30;91.00;;;;;;5004309;28;20046;-72
2022/04/08 04:44:27;;;;;;;2.10;0.80;;;12.30;91.30;;;;;;5000066;28;20589;-72
2022/04/08 04:46:54;;;;;;;4.25;0.63;;;12.30;91.20;;;;;;4994464;28;20042;-71
2022/04/08 04:49:21;;;;;;;5.55;0.70;;;12.40;91.30;;;;;;5017265;28;20080;-72
2022/04/08 04:51:50;;;;;;;2.50;0.77;;;12.30;91.30;;;;;;5018699;28;20051;-71
2022/04/08 04:54:17;;;;;;;2.15;0.80;;;12.30;91.20;;;;;;5017445;28;20099;-73
2022/04/08 04:56:44;;;;;;;3.38;0.80;;;12.40;91.20;;;;;;5018956;28;20092;-75
2022/04/08 04:59:11;;;;;;;1.83;0.50;;;12.30;91.10;;;;;;5011581;28;20050;-72
2022/04/08 05:01:38;;;;;;;1.85;0.60;;;12.30;91.00;;;;;;5019832;28;20885;-72
2022/04/08 05:04:05;;;;;;;1.25;0.40;;;12.30;90.90;;;;;;5013786;28;20051;-73
2022/04/08 05:06:34;;;;;;;2.38;0.73;;;12.30;90.80;;;;;;5013987;28;20049;-71
2022/04/08 05:09:04;;;;;;;2.10;0.75;;;12.30;90.70;;;;;;4999410;28;20536;-73
2022/04/08 05:11:31;;;;;;;2.95;0.60;;;12.30;90.70;;;;;;4994569;28;20169;-73
2022/04/08 05:13:57;;;;;;;2.05;0.68;;;12.30;90.70;;;;;;5007850;28;20122;-72
2022/04/08 05:16:24;;;;;;;1.85;0.60;;;12.30;90.70;;;;;;5016657;28;20081;-73
2022/04/08 05:18:51;;;;;;;1.85;0.70;;;12.30;90.60;;;;;;5016473;28;20132;-75
2022/04/08 05:21:18;;;;;;;2.38;0.70;;;12.30;90.60;;;;;;5021741;28;20083;-73
2022/04/08 05:23:45;;;;;;;3.05;0.80;;;12.30;90.90;;;;;;5007501;28;20056;-76
2022/04/08 05:26:13;;;;;;;5.38;1.10;;;12.30;90.90;;;;;;5026675;28;20045;-75
2022/04/08 05:28:40;;;;;;;4.45;1.13;;;12.30;90.80;;;;;;5001796;28;20054;-74
2022/04/08 05:31:07;;;;;;;2.33;0.80;;;12.30;90.80;;;;;;5012939;28;20034;-76
2022/04/08 05:33:34;;;;;;;3.15;1.00;;;12.30;90.90;;;;;;5021193;28;20120;-75
2022/04/08 05:36:01;;;;;;;2.72;0.90;;;12.30;90.80;;;;;;5023947;28;20131;-75
2022/04/08 05:38:28;;;;;;;5.65;0.90;;;12.30;90.70;;;;;;5022347;28;20148;-74
2022/04/08 05:40:54;;;;;;;3.65;0.90;;;12.30;90.70;;;;;;5032252;28;20069;-75
2022/04/08 05:43:23;;;;;;;3.25;1.20;;;12.30;90.70;;;;;;5036064;28;20517;-73
2022/04/08 05:45:49;;;;;;;2.72;1.00;;;12.30;90.90;;;;;;5017501;28;20046;-75
2022/04/08 05:48:16;;;;;;;2.45;1.02;;;12.20;90.40;;;;;;5022759;28;20115;-74
2022/04/08 05:50:43;;;;;;;2.30;0.80;;;12.20;90.40;;;;;;5015435;28;20640;-74
2022/04/08 05:53:10;;;;;;;4.57;0.95;;;12.30;90.40;;;;;;5016421;28;20041;-75
2022/04/08 05:55:37;;;;;;;2.67;0.88;;;12.30;90.40;;;;;;4996867;28;20077;-75
2022/04/08 05:58:04;;;;;;;1.90;0.90;;;12.20;90.70;;;;;;5015052;28;20532;-73
2022/04/08 06:00:34;;;;;;;3.25;0.85;;;12.30;90.40;;;;;;5018044;28;20053;-74
2022/04/08 06:03:01;;;;;;;1.70;0.75;;;12.20;90.30;;;;;;5023230;28;20045;-75
2022/04/08 06:05:27;;;;;;;3.58;1.10;;;12.20;90.30;;;;;;5013147;28;20053;-75
2022/04/08 06:07:55;;;;;;;1.88;0.70;;;12.20;90.20;;;;;;4995288;28;20050;-74
2022/04/08 06:10:24;;;;;;;2.75;0.73;;;12.20;90.30;;;;;;5020476;28;20052;-75
2022/04/08 06:12:51;;;;;;;2.15;1.02;;;12.20;90.30;;;;;;5019377;28;20099;-75
2022/04/08 06:15:22;;;;;;;2.00;0.75;;;12.30;90.30;;;;;;5022214;28;20041;-73
2022/04/08 06:17:51;;;;;;;2.13;0.80;;;12.20;90.30;;;;;;5004932;28;20045;-74
2022/04/08 06:20:20;;;;;;;2.97;1.00;;;12.20;90.20;;;;;;5017713;28;20069;-76
2022/04/08 06:22:48;;;;;;;2.58;0.90;;;12.20;90.20;;;;;;5002892;28;20042;-75
2022/04/08 06:25:16;;;;;;;2.58;0.93;;;12.20;90.30;;;;;;5023097;28;20045;-74
2022/04/08 06:27:44;;;;;;;2.00;0.80;;;12.20;90.30;;;;;;5013657;28;20050;-72
2022/04/08 06:30:14;;;;;;;2.53;1.02;;;12.20;90.40;;;;;;5024066;28;20081;-74
2022/04/08 06:32:43;;;;;;;2.13;0.90;;;12.20;90.40;;;;;;5024869;28;20053;-73
2022/04/08 06:35:12;;;;;;;2.00;0.90;;;12.30;90.50;;;;;;5027313;28;20072;-73
2022/04/08 06:37:40;;;;;;;4.15;0.90;;;12.20;90.40;;;;;;5020796;28;20092;-75
2022/04/08 06:40:08;;;;;;;3.08;0.88;;;12.30;90.50;;;;;;5012842;28;20052;-73
2022/04/08 06:42:36;;;;;;;1.85;0.80;;;12.20;90.40;;;;;;5020397;28;20041;-75
2022/04/08 06:45:05;;;;;;;2.08;0.70;;;12.30;90.50;;;;;;5022306;28;20053;-75
2022/04/08 06:47:31;;;;;;;1.30;0.70;;;12.30;90.50;;;;;;5016191;28;20049;-74
2022/04/08 06:49:58;;;;;;;2.90;0.82;;;12.30;90.50;;;;;;5022044;28;20064;-74
2022/04/08 06:52:26;;;;;;;2.75;0.80;;;12.30;90.50;;;;;;5011297;28;20056;-74
2022/04/08 06:54:53;;;;;;;2.22;0.90;;;12.30;90.50;;;;;;5021634;28;20132;-75
2022/04/08 06:57:20;;;;;;;2.50;0.80;;;12.30;90.50;;;;;;5002902;28;20061;-75
2022/04/08 06:59:47;;;;;;;3.22;0.90;;;12.30;90.50;;;;;;5020767;28;20132;-75
2022/04/08 07:02:14;;;;;;;3.17;0.90;;;12.30;90.40;;;;;;5021259;28;20049;-74
2022/04/08 07:04:42;;;;;;;3.60;0.98;;;12.30;90.40;;;;;;5018311;28;20046;-75
2022/04/08 07:07:09;;;;;;;2.80;0.70;;;12.30;90.40;;;;;;5014986;28;20049;-75
2022/04/08 07:09:37;;;;;;;1.52;0.77;;;12.30;90.50;;;;;;5015598;28;20137;-72
2022/04/08 07:12:04;;;;;;;3.60;0.82;;;12.30;90.50;;;;;;5020360;28;20052;-75
2022/04/08 07:14:31;;;;;;;2.67;0.90;;;12.30;90.50;;;;;;5018769;28;20068;-74
2022/04/08 07:16:58;;;;;;;2.20;0.80;;;12.30;90.40;;;;;;5002383;28;20077;-74
2022/04/08 07:19:25;;;;;;;3.22;0.80;;;12.30;90.50;;;;;;5021127;28;20057;-75
2022/04/08 07:21:52;;;;;;;1.65;0.75;;;12.30;90.40;;;;;;5010609;28;20055;-74
2022/04/08 07:24:18;;;;;;;2.70;1.00;;;12.30;90.40;;;;;;5019713;28;20045;-75
2022/04/08 07:26:47;;;;;;;1.77;0.88;;;12.30;90.50;;;;;;4998926;28;20103;-76
2022/04/08 07:29:13;;;;;;;2.13;0.95;;;12.30;90.40;;;;;;5018816;28;20041;-75
2022/04/08 07:31:40;;;;;;;2.67;1.00;;;12.30;90.40;;;;;;5014525;28;20128;-72
2022/04/08 07:34:07;;;;;;;1.60;0.68;;;12.30;90.40;;;;;;5019658;28;20041;-74
2022/04/08 07:36:34;;;;;;;1.83;0.80;;;12.30;90.30;;;;;;5019324;28;20234;-72
2022/04/08 07:39:01;;;;;;;2.35;0.80;;;12.30;90.40;;;;;;5001798;28;20080;-74
2022/04/08 07:41:27;;;;;;;1.75;0.70;;;12.30;90.40;;;;;;5019302;28;20046;-75
2022/04/08 07:43:56;;;;;;;1.95;0.80;;;12.30;90.30;;;;;;5018403;28;20061;-75
2022/04/08 07:46:23;;;;;;;1.85;0.70;;;12.30;90.30;;;;;;5019587;28;20052;-75
2022/04/08 07:48:50;;;;;;;1.88;0.70;;;12.30;90.40;;;;;;5019618;28;20132;-75
2022/04/08 07:51:16;;;;;;;1.60;0.68;;;12.30;90.30;;;;;;5020640;28;20077;-75
2022/04/08 07:53:43;;;;;;;3.40;0.82;;;12.30;90.20;;;;;;5015138;28;20455;-74
2022/04/08 07:56:10;;;;;;;1.42;0.68;;;12.30;90.20;;;;;;5020055;28;20037;-77
2022/04/08 07:58:37;;;;;;;3.33;0.98;;;12.30;90.20;;;;;;5000238;28;20048;-75
2022/04/08 08:01:05;;;;;;;2.05;0.77;;;12.30;90.20;;;;;;5021049;28;20144;-74
2022/04/08 08:03:34;;;;;;;2.75;0.98;;;12.30;90.20;;;;;;5020296;28;20060;-75
2022/04/08 08:06:03;;;;;;;1.60;0.60;;;12.30;90.20;;;;;;5025143;28;20558;-74
2022/04/08 08:08:31;;;;;;;2.10;0.80;;;12.30;90.10;;;;;;5016459;28;20056;-75
2022/04/08 08:10:58;;;;;;;1.92;0.70;;;12.30;90.00;;;;;;5018403;28;20128;-74
2022/04/08 08:13:25;;;;;;;2.58;0.95;;;12.30;90.00;;;;;;5018974;28;20067;-73
2022/04/08 08:15:52;;;;;;;2.03;0.70;;;12.30;90.00;;;;;;5022797;28;20056;-74
2022/04/08 08:18:21;;;;;;;2.75;0.93;;;12.30;90.00;;;;;;5027029;28;20037;-73
2022/04/08 08:20:49;;;;;;;2.30;0.82;;;12.30;90.00;;;;;;5040196;28;20034;-72
2022/04/08 08:23:16;;;;;;;2.45;0.80;;;12.30;90.00;;;;;;5003981;28;20045;-75
2022/04/08 08:25:44;;;;;;;1.65;0.70;;;12.30;90.00;;;;;;5018793;28;20392;-73
2022/04/08 08:28:11;;;;;;;1.70;0.60;;;12.30;90.00;;;;;;5024205;28;20046;-74
2022/04/08 08:30:39;;;;;;;2.28;0.70;;;12.30;90.00;;;;;;5019824;28;20059;-74
2022/04/08 08:33:07;;;;;;;2.03;0.70;;;12.30;89.90;;;;;;5016655;28;20140;-76
2022/04/08 08:35:35;;;;;;;1.92;0.77;;;12.30;89.90;;;;;;5010449;28;20049;-74
2022/04/08 08:38:03;;;;;;;1.67;0.60;;;12.30;89.80;;;;;;5003250;28;20045;-74
2022/04/08 08:40:32;;;;;;;1.65;0.68;;;12.30;89.80;;;;;;5018334;28;20125;-74
2022/04/08 08:43:00;;;;;;;1.55;0.52;;;12.30;89.80;;;;;;5020437;28;20072;-74
2022/04/08 08:45:32;;;;;;;2.10;0.73;;;12.30;89.70;;;;;;5000753;28;20060;-73
2022/04/08 08:48:01;;;;;;;2.40;0.80;;;12.30;89.70;;;;;;5018325;28;20099;-74
2022/04/08 08:50:29;;;;;;;2.30;0.57;;;12.30;89.60;;;;;;5017237;28;20049;-74
2022/04/08 08:52:58;;;;;;;2.50;0.68;;;12.30;89.20;;;;;;5017947;28;20038;-74
2022/04/08 08:55:25;;;;;;;2.08;0.70;;;12.30;89.40;;;;;;5019046;28;20068;-74
2022/04/08 08:57:52;;;;;;;2.15;0.80;;;12.40;89.50;;;;;;4996927;28;20045;-75
2022/04/08 09:00:23;;;;;;;1.65;0.70;;;12.30;89.40;;;;;;5019218;28;20045;-73
2022/04/08 09:02:50;;;;;;;2.65;0.85;;;12.30;89.20;;;;;;5018918;28;20099;-74
2022/04/08 09:05:19;;;;;;;1.60;0.70;;;12.40;89.20;;;;;;5016087;28;20052;-73
2022/04/08 09:07:54;;;;;;;2.00;0.65;;;12.30;89.00;;;;;;5015444;28;20561;-73
2022/04/08 09:10:27;;;;;;;1.80;0.80;;;12.40;89.00;;;;;;5018892;28;20052;-74
2022/04/08 09:12:55;;;;;;;1.98;0.80;;;12.30;88.70;;;;;;5014935;28;20042;-73
2022/04/08 09:15:22;;;;;;;3.60;0.82;;;12.30;89.40;;;;;;5018006;28;20096;-75
2022/04/08 09:17:48;;;;;;;1.15;0.60;;;12.40;88.70;;;;;;5015753;28;20073;-73
2022/04/08 09:20:16;;;;;;;2.08;0.70;;;12.40;88.60;;;;;;5019564;28;20044;-75
2022/04/08 09:22:44;;;;;;;2.05;0.93;;;12.30;88.30;;;;;;4998898;28;20084;-75
2022/04/08 09:25:12;;;;;;;1.27;0.60;;;12.40;88.30;;;;;;5012304;28;20058;-74
2022/04/08 09:27:41;;;;;;;1.67;0.60;;;12.30;88.00;;;;;;5016558;28;20107;-74
2022/04/08 09:30:09;;;;;;;3.42;0.88;;;12.40;87.90;;;;;;5016762;28;20054;-73
2022/04/08 09:32:37;;;;;;;1.13;0.60;;;12.30;87.70;;;;;;5014291;28;20125;-74
2022/04/08 09:35:04;;;;;;;1.30;0.70;;;12.40;87.80;;;;;;5018356;28;20492;-75
2022/04/08 09:37:31;;;;;;;1.75;0.70;;;12.40;87.70;;;;;;5009690;28;20050;-72
2022/04/08 09:40:00;;;;;;;2.03;0.65;;;12.30;87.40;;;;;;4996460;28;20045;-74
2022/04/08 09:42:43;;;;;;;2.58;0.80;;;12.40;87.30;;;;;;5015438;28;20045;-76
2022/04/08 09:45:11;;;;;;;1.90;0.50;;;12.40;86.90;;;;;;5017354;28;20485;-74
2022/04/08 09:47:38;;;;;;;1.73;0.70;;;12.40;86.90;;;;;;5014645;28;20049;-75
2022/04/08 09:50:05;;;;;;;1.30;0.60;;;12.40;86.90;;;;;;5019927;28;20049;-73
2022/04/08 09:52:33;;;;;;;2.45;0.80;;;12.40;87.10;;;;;;4999554;28;20060;-74
2022/04/08 09:55:03;;;;;;;1.10;0.50;;;12.30;86.60;;;;;;5018009;28;20527;-75
2022/04/08 09:57:34;;;;;;;2.22;0.70;;;12.40;86.60;;;;;;5016838;28;20064;-74
2022/04/08 10:00:04;;;;;;;2.22;0.60;;;12.40;86.30;;;;;;5019246;28;20049;-74
2022/04/08 10:02:34;;;;;;;1.38;0.50;;;12.40;86.50;;;;;;5018208;28;20123;-74
2022/04/08 10:05:02;;;;;;;2.38;0.68;;;12.40;86.30;;;;;;4992987;28;20128;-76
2022/04/08 10:07:30;;;;;;;1.45;0.60;;;12.40;86.30;;;;;;5016515;28;20049;-73
2022/04/08 10:10:02;;;;;;;1.40;0.60;;;12.40;86.20;;;;;;5015943;28;20554;-76
2022/04/08 10:12:39;;;;;;;2.08;0.70;;;12.40;86.10;;;;;;5021933;28;20045;-75
2022/04/08 10:15:15;;;;;;;2.35;0.60;;;12.40;86.10;;;;;;5022010;28;20037;-71
2022/04/08 10:17:42;;;;;;;1.27;0.55;;;12.40;86.10;;;;;;5022804;28;20041;-74
2022/04/08 10:20:17;;;;;;;0.88;0.50;;;12.40;85.90;;;;;;5012622;28;20041;-75
2022/04/08 10:22:44;;;;;;;1.98;0.60;;;12.40;85.80;;;;;;5019793;28;20041;-74
2022/04/08 10:25:15;;;;;;;2.35;0.60;;;12.40;85.70;;;;;;5034089;28;20074;-73
2022/04/08 10:27:44;;;;;;;2.08;0.70;;;12.50;85.80;;;;;;5033139;28;20050;-73
2022/04/08 10:30:14;;;;;;;1.45;0.60;;;12.40;85.20;;;;;;5025745;28;20049;-74
2022/04/08 10:32:43;;;;;;;2.63;0.60;;;12.40;85.30;;;;;;5021934;28;20041;-75
2022/04/08 10:35:16;;;;;;;1.67;0.60;;;12.40;85.40;;;;;;5022601;28;20041;-72
2022/04/08 10:37:54;;;;;;;2.58;0.63;;;12.40;85.50;;;;;;5003363;28;20095;-74
2022/04/08 10:40:21;;;;;;;2.10;0.77;;;12.40;85.50;;;;;;5021058;28;20069;-73
2022/04/08 10:42:57;;;;;;;2.13;0.60;;;12.40;85.00;;;;;;5020509;28;20056;-74
2022/04/08 10:45:25;;;;;;;1.38;0.60;;;12.40;85.10;;;;;;5021363;28;20062;-72
2022/04/08 10:47:52;;;;;;;2.15;0.70;;;12.40;85.20;;;;;;5004272;28;20049;-74
2022/04/08 10:50:26;;;;;;;1.30;0.57;;;12.40;84.80;;;;;;5021726;28;20049;-74
2022/04/08 10:53:04;;;;;;;1.92;0.60;;;12.40;84.80;;;;;;5022142;28;20048;-74
2022/04/08 10:55:31;;;;;;;1.77;0.70;;;12.40;84.70;;;;;;5022624;28;20045;-74
2022/04/08 10:58:04;;;;;;;1.15;0.45;;;12.40;84.50;;;;;;5026472;28;20069;-73
2022/04/08 11:00:39;;;;;;;1.20;0.43;;;12.40;84.70;;;;;;5043228;28;20109;-74
2022/04/08 11:03:11;;;;;;;1.70;0.60;;;12.40;84.70;;;;;;5029405;28;20033;-75
2022/04/08 11:05:39;;;;;;;1.88;0.50;;;12.40;84.30;;;;;;5020951;28;20053;-75
2022/04/08 11:08:07;;;;;;;1.58;0.60;;;12.40;84.50;;;;;;5019904;28;20120;-75
2022/04/08 11:10:35;;;;;;;1.27;0.40;;;12.40;84.50;;;;;;5021504;28;20147;-74
2022/04/08 11:13:01;;;;;;;1.73;0.57;;;12.40;84.30;;;;;;5002708;28;20051;-73
2022/04/08 11:15:30;;;;;;;2.42;0.65;;;12.40;84.30;;;;;;5020553;28;20048;-73
2022/04/08 11:18:00;;;;;;;1.85;0.55;;;12.40;83.90;;;;;;5008178;28;20056;-76
2022/04/08 11:20:28;;;;;;;1.83;0.50;;;12.40;83.90;;;;;;5019630;28;20049;-75
2022/04/08 11:22:56;;;;;;;1.30;0.50;;;12.40;83.90;;;;;;5018514;28;20044;-72
2022/04/08 11:25:24;;;;;;;0.70;0.40;;;12.40;83.90;;;;;;5020708;28;20765;-74
2022/04/08 11:28:05;;;;;;;2.40;0.50;;;12.40;83.90;;;;;;5019274;28;20154;-75
2022/04/08 11:30:34;;;;;;;2.33;0.80;;;12.50;83.70;;;;;;5017283;28;20065;-73
2022/04/08 11:33:13;;;;;;;1.38;0.50;;;12.40;83.40;;;;;;5019816;28;20052;-76
2022/04/08 11:35:40;;;;;;;0.90;0.50;;;12.40;83.70;;;;;;5017639;28;20045;-77
2022/04/08 11:38:13;;;;;;;1.38;0.55;;;12.50;83.20;;;;;;5012193;28;20045;-74
2022/04/08 11:40:40;;;;;;;0.93;0.40;;;12.50;83.10;;;;;;5018723;28;20045;-75
2022/04/08 11:43:07;;;;;;;1.60;0.60;;;12.50;83.40;;;;;;5018350;28;20042;-73
2022/04/08 11:45:34;;;;;;;1.60;0.50;;;12.40;83.00;;;;;;5019874;28;20057;-74
2022/04/08 11:48:02;;;;;;;1.65;0.50;;;12.40;82.70;;;;;;5018325;28;20108;-73
2022/04/08 11:50:29;;;;;;;1.48;0.60;;;12.40;83.00;;;;;;5012217;28;20077;-74
2022/04/08 11:52:57;;;;;;;3.60;0.70;;;12.40;82.80;;;;;;5001151;28;20033;-73
2022/04/08 11:55:26;;;;;;;2.90;0.50;;;12.50;82.80;;;;;;5001169;28;20054;-74
2022/04/08 11:57:55;;;;;;;1.92;0.68;;;12.40;82.20;;;;;;5016359;28;20103;-74
2022/04/08 12:00:26;;;;;;;2.38;0.60;;;12.50;82.90;;;;;;5019927;28;20049;-73
2022/04/08 12:02:53;;;;;;;1.88;0.60;;;12.40;81.90;;;;;;5008788;28;20145;-74
2022/04/08 12:05:25;;;;;;;1.55;0.60;;;12.40;82.10;;;;;;5000308;28;20057;-75
2022/04/08 12:07:53;;;;;;;1.00;0.40;;;12.50;82.10;;;;;;5019818;28;20045;-74
2022/04/08 12:10:22;;;;;;;1.40;0.60;;;12.40;82.20;;;;;;5020175;28;20518;-75
2022/04/08 12:12:49;;;;;;;2.25;0.60;;;12.40;82.00;;;;;;4995678;28;20074;-74
2022/04/08 12:15:19;;;;;;;2.00;0.50;;;12.40;81.90;;;;;;5018341;28;20046;-76
2022/04/08 12:17:47;;;;;;;1.33;0.50;;;12.50;81.80;;;;;;5020238;28;20049;-73
2022/04/08 12:20:15;;;;;;;0.93;0.50;;;12.50;81.90;;;;;;5019318;28;20037;-74
2022/04/08 12:22:46;;;;;;;1.67;0.70;;;12.50;81.90;;;;;;5030548;28;20041;-73
2022/04/08 12:25:14;;;;;;;1.45;0.60;;;12.50;81.70;;;;;;5026174;28;20046;-73
2022/04/08 12:27:41;;;;;;;1.38;0.55;;;12.50;81.90;;;;;;5027670;28;20141;-74
2022/04/08 12:30:09;;;;;;;1.52;0.60;;;12.40;81.90;;;;;;5001654;28;20048;-74
2022/04/08 12:32:38;;;;;;;1.83;0.50;;;12.40;81.60;;;;;;5015149;28;20061;-75
2022/04/08 12:35:08;;;;;;;2.50;0.60;;;12.40;81.90;;;;;;5016580;28;20042;-75
2022/04/08 12:37:35;;;;;;;1.35;0.50;;;12.50;82.50;;;;;;5017072;28;20060;-73
2022/04/08 12:40:05;;;;;;;1.98;0.60;;;12.50;82.10;;;;;;5001494;28;20041;-73
2022/04/08 12:42:34;;;;;;;1.77;0.60;;;12.40;82.10;;;;;;4998648;28;20041;-75
2022/04/08 12:45:02;;;;;;;1.63;0.60;;;12.50;82.10;;;;;;5001577;28;20134;-75
2022/04/08 12:47:36;;;;;;;2.20;0.60;;;12.40;81.70;;;;;;5019875;28;20076;-74
2022/04/08 12:50:04;;;;;;;3.53;0.60;;;12.50;81.90;;;;;;5016470;28;20065;-75
2022/04/08 12:52:31;;;;;;;1.85;0.60;;;12.40;81.50;;;;;;5016783;28;20041;-74